sensor_id;sensor_type;location;lat;lon;timestamp;P1;durP1;ratioP1;P2;durP2;ratioP2
63555;SDS011;49700;48.072;7.800;2023-04-03T00:00:26;5.13;;;2.83;;
63555;SDS011;49700;48.072;7.800;2023-04-03T00:02:51;3.60;;;3.30;;
63555;SDS011;49700;48.072;7.800;2023-04-03T00:05:16;4.23;;;3.10;;
63555;SDS011;49700;48.072;7.800;2023-04-03T00:07:42;3.40;;;3.10;;
63555;SDS011;49700;48.072;7.800;2023-04-03T00:10:07;5.33;;;3.10;;
63555;SDS011;49700;48.072;7.800;2023-04-03T00:12:33;4.05;;;2.72;;
63555;SDS011;49700;48.072;7.800;2023-04-03T00:14:59;4.27;;;3.13;;
63555;SDS011;49700;48.072;7.800;2023-04-03T00:17:24;3.73;;;3.43;;
63555;SDS011;49700;48.072;7.800;2023-04-03T00:19:50;5.00;;;3.80;;
63555;SDS011;49700;48.072;7.800;2023-04-03T00:22:15;4.43;;;3.60;;
63555;SDS011;49700;48.072;7.800;2023-04-03T00:24:41;3.70;;;3.37;;
63555;SDS011;49700;48.072;7.800;2023-04-03T00:27:07;3.37;;;2.70;;
63555;SDS011;49700;48.072;7.800;2023-04-03T00:29:32;3.40;;;3.10;;
63555;SDS011;49700;48.072;7.800;2023-04-03T00:31:57;3.10;;;2.80;;
63555;SDS011;49700;48.072;7.800;2023-04-03T00:34:23;3.03;;;2.73;;
63555;SDS011;49700;48.072;7.800;2023-04-03T00:36:49;3.07;;;2.60;;
63555;SDS011;49700;48.072;7.800;2023-04-03T00:39:14;2.50;;;2.30;;
63555;SDS011;49700;48.072;7.800;2023-04-03T00:41:40;6.57;;;3.30;;
63555;SDS011;49700;48.072;7.800;2023-04-03T00:46:52;3.10;;;2.50;;
63555;SDS011;49700;48.072;7.800;2023-04-03T00:49:18;3.17;;;2.87;;
63555;SDS011;49700;48.072;7.800;2023-04-03T00:51:44;3.30;;;2.97;;
63555;SDS011;49700;48.072;7.800;2023-04-03T00:54:09;3.73;;;2.97;;
63555;SDS011;49700;48.072;7.800;2023-04-03T00:56:35;3.70;;;3.03;;
63555;SDS011;49700;48.072;7.800;2023-04-03T01:01:36;3.05;;;2.70;;
63555;SDS011;49700;48.072;7.800;2023-04-03T01:04:03;11.23;;;3.33;;
63555;SDS011;49700;48.072;7.800;2023-04-03T01:06:30;3.60;;;2.88;;
63555;SDS011;49700;48.072;7.800;2023-04-03T01:09:06;5.78;;;3.13;;
63555;SDS011;49700;48.072;7.800;2023-04-03T01:11:32;2.73;;;2.27;;
63555;SDS011;49700;48.072;7.800;2023-04-03T01:13:59;4.25;;;2.88;;
63555;SDS011;49700;48.072;7.800;2023-04-03T01:16:26;2.80;;;2.55;;
63555;SDS011;49700;48.072;7.800;2023-04-03T01:18:56;3.22;;;2.92;;
63555;SDS011;49700;48.072;7.800;2023-04-03T01:26:39;2.63;;;2.35;;
63555;SDS011;49700;48.072;7.800;2023-04-03T01:29:05;2.42;;;2.22;;
63555;SDS011;49700;48.072;7.800;2023-04-03T01:34:02;4.68;;;2.40;;
63555;SDS011;49700;48.072;7.800;2023-04-03T01:36:31;4.32;;;2.50;;
63555;SDS011;49700;48.072;7.800;2023-04-03T01:38:57;3.33;;;2.17;;
63555;SDS011;49700;48.072;7.800;2023-04-03T01:41:24;8.32;;;2.67;;
63555;SDS011;49700;48.072;7.800;2023-04-03T01:43:53;3.15;;;2.47;;
63555;SDS011;49700;48.072;7.800;2023-04-03T01:46:19;3.17;;;2.10;;
63555;SDS011;49700;48.072;7.800;2023-04-03T01:48:45;2.42;;;2.22;;
63555;SDS011;49700;48.072;7.800;2023-04-03T01:51:11;2.10;;;1.90;;
63555;SDS011;49700;48.072;7.800;2023-04-03T01:53:37;3.40;;;2.47;;
63555;SDS011;49700;48.072;7.800;2023-04-03T01:56:03;3.23;;;2.50;;
63555;SDS011;49700;48.072;7.800;2023-04-03T01:58:30;3.50;;;2.15;;
63555;SDS011;49700;48.072;7.800;2023-04-03T02:00:56;6.27;;;2.70;;
63555;SDS011;49700;48.072;7.800;2023-04-03T02:03:21;3.33;;;2.77;;
63555;SDS011;49700;48.072;7.800;2023-04-03T02:05:47;3.50;;;3.20;;
63555;SDS011;49700;48.072;7.800;2023-04-03T02:08:13;2.80;;;2.60;;
63555;SDS011;49700;48.072;7.800;2023-04-03T02:10:39;3.33;;;2.87;;
63555;SDS011;49700;48.072;7.800;2023-04-03T02:13:05;3.08;;;2.78;;
63555;SDS011;49700;48.072;7.800;2023-04-03T02:15:30;3.30;;;2.80;;
63555;SDS011;49700;48.072;7.800;2023-04-03T02:17:56;4.23;;;3.30;;
63555;SDS011;49700;48.072;7.800;2023-04-03T02:20:22;4.63;;;3.30;;
63555;SDS011;49700;48.072;7.800;2023-04-03T02:22:48;4.73;;;3.40;;
63555;SDS011;49700;48.072;7.800;2023-04-03T02:25:13;3.37;;;2.67;;
63555;SDS011;49700;48.072;7.800;2023-04-03T02:27:39;3.53;;;2.85;;
63555;SDS011;49700;48.072;7.800;2023-04-03T02:30:06;4.30;;;2.72;;
63555;SDS011;49700;48.072;7.800;2023-04-03T02:32:31;2.93;;;2.30;;
63555;SDS011;49700;48.072;7.800;2023-04-03T02:34:58;2.70;;;2.30;;
63555;SDS011;49700;48.072;7.800;2023-04-03T02:37:23;2.90;;;2.43;;
63555;SDS011;49700;48.072;7.800;2023-04-03T02:39:51;2.42;;;2.22;;
63555;SDS011;49700;48.072;7.800;2023-04-03T02:42:16;3.70;;;3.03;;
63555;SDS011;49700;48.072;7.800;2023-04-03T02:44:41;3.00;;;2.47;;
63555;SDS011;49700;48.072;7.800;2023-04-03T02:47:08;5.90;;;2.50;;
63555;SDS011;49700;48.072;7.800;2023-04-03T02:49:34;4.33;;;2.50;;
63555;SDS011;49700;48.072;7.800;2023-04-03T02:51:59;3.50;;;2.80;;
63555;SDS011;49700;48.072;7.800;2023-04-03T02:54:25;3.80;;;3.13;;
63555;SDS011;49700;48.072;7.800;2023-04-03T02:56:54;2.97;;;2.70;;
63555;SDS011;49700;48.072;7.800;2023-04-03T02:59:20;3.70;;;2.90;;
63555;SDS011;49700;48.072;7.800;2023-04-03T03:01:46;4.83;;;2.90;;
63555;SDS011;49700;48.072;7.800;2023-04-03T03:04:11;4.50;;;2.80;;
63555;SDS011;49700;48.072;7.800;2023-04-03T03:06:36;3.27;;;3.07;;
63555;SDS011;49700;48.072;7.800;2023-04-03T03:09:02;3.10;;;2.80;;
63555;SDS011;49700;48.072;7.800;2023-04-03T03:11:28;2.70;;;2.50;;
63555;SDS011;49700;48.072;7.800;2023-04-03T03:13:54;3.55;;;2.20;;
63555;SDS011;49700;48.072;7.800;2023-04-03T03:16:21;3.67;;;3.08;;
63555;SDS011;49700;48.072;7.800;2023-04-03T03:18:47;4.57;;;3.27;;
63555;SDS011;49700;48.072;7.800;2023-04-03T03:21:12;3.97;;;3.67;;
63555;SDS011;49700;48.072;7.800;2023-04-03T03:23:38;2.63;;;2.43;;
63555;SDS011;49700;48.072;7.800;2023-04-03T03:26:05;3.67;;;2.55;;
63555;SDS011;49700;48.072;7.800;2023-04-03T03:28:33;3.30;;;2.63;;
63555;SDS011;49700;48.072;7.800;2023-04-03T03:31:01;4.53;;;3.50;;
63555;SDS011;49700;48.072;7.800;2023-04-03T03:33:28;4.05;;;2.58;;
63555;SDS011;49700;48.072;7.800;2023-04-03T03:35:53;5.80;;;3.47;;
63555;SDS011;49700;48.072;7.800;2023-04-03T03:38:20;4.90;;;2.70;;
63555;SDS011;49700;48.072;7.800;2023-04-03T03:40:49;5.70;;;2.85;;
63555;SDS011;49700;48.072;7.800;2023-04-03T03:43:17;3.15;;;2.53;;
63555;SDS011;49700;48.072;7.800;2023-04-03T03:45:43;4.95;;;2.45;;
63555;SDS011;49700;48.072;7.800;2023-04-03T03:48:10;3.20;;;2.40;;
63555;SDS011;49700;48.072;7.800;2023-04-03T03:50:36;2.73;;;2.53;;
63555;SDS011;49700;48.072;7.800;2023-04-03T03:53:01;4.40;;;2.50;;
63555;SDS011;49700;48.072;7.800;2023-04-03T03:55:27;2.43;;;2.03;;
63555;SDS011;49700;48.072;7.800;2023-04-03T03:57:55;2.22;;;2.03;;
63555;SDS011;49700;48.072;7.800;2023-04-03T04:00:21;2.33;;;1.83;;
63555;SDS011;49700;48.072;7.800;2023-04-03T04:02:52;3.00;;;2.40;;
63555;SDS011;49700;48.072;7.800;2023-04-03T04:05:19;3.17;;;2.87;;
63555;SDS011;49700;48.072;7.800;2023-04-03T04:07:45;3.30;;;2.70;;
63555;SDS011;49700;48.072;7.800;2023-04-03T04:10:11;2.50;;;2.30;;
63555;SDS011;49700;48.072;7.800;2023-04-03T04:12:36;2.90;;;2.13;;
63555;SDS011;49700;48.072;7.800;2023-04-03T04:15:02;3.45;;;2.42;;
63555;SDS011;49700;48.072;7.800;2023-04-03T04:17:28;3.13;;;2.50;;
63555;SDS011;49700;48.072;7.800;2023-04-03T04:19:54;2.65;;;2.45;;
63555;SDS011;49700;48.072;7.800;2023-04-03T04:22:20;3.10;;;2.50;;
63555;SDS011;49700;48.072;7.800;2023-04-03T04:24:46;4.27;;;2.50;;
63555;SDS011;49700;48.072;7.800;2023-04-03T04:27:14;2.60;;;2.40;;
63555;SDS011;49700;48.072;7.800;2023-04-03T04:29:41;2.10;;;2.00;;
63555;SDS011;49700;48.072;7.800;2023-04-03T04:32:07;2.95;;;2.63;;
63555;SDS011;49700;48.072;7.800;2023-04-03T04:34:34;3.30;;;3.00;;
63555;SDS011;49700;48.072;7.800;2023-04-03T04:37:00;3.15;;;2.85;;
63555;SDS011;49700;48.072;7.800;2023-04-03T04:39:26;3.40;;;3.10;;
63555;SDS011;49700;48.072;7.800;2023-04-03T04:41:54;3.15;;;2.85;;
63555;SDS011;49700;48.072;7.800;2023-04-03T04:44:20;3.72;;;3.40;;
63555;SDS011;49700;48.072;7.800;2023-04-03T04:46:46;5.57;;;2.87;;
63555;SDS011;49700;48.072;7.800;2023-04-03T04:49:11;3.20;;;2.90;;
63555;SDS011;49700;48.072;7.800;2023-04-03T04:51:37;3.80;;;2.80;;
63555;SDS011;49700;48.072;7.800;2023-04-03T04:54:05;2.75;;;2.55;;
63555;SDS011;49700;48.072;7.800;2023-04-03T04:59:23;4.32;;;3.53;;
63555;SDS011;49700;48.072;7.800;2023-04-03T05:01:50;3.58;;;3.22;;
63555;SDS011;49700;48.072;7.800;2023-04-03T05:04:16;4.10;;;3.37;;
63555;SDS011;49700;48.072;7.800;2023-04-03T05:06:44;4.50;;;2.60;;
63555;SDS011;49700;48.072;7.800;2023-04-03T05:09:14;3.35;;;3.05;;
63555;SDS011;49700;48.072;7.800;2023-04-03T05:11:41;3.42;;;3.13;;
63555;SDS011;49700;48.072;7.800;2023-04-03T05:14:08;3.20;;;2.90;;
63555;SDS011;49700;48.072;7.800;2023-04-03T05:16:35;4.03;;;2.78;;
63555;SDS011;49700;48.072;7.800;2023-04-03T05:19:00;4.27;;;3.40;;
63555;SDS011;49700;48.072;7.800;2023-04-03T05:21:26;4.83;;;3.23;;
63555;SDS011;49700;48.072;7.800;2023-04-03T05:23:54;4.22;;;3.78;;
63555;SDS011;49700;48.072;7.800;2023-04-03T05:26:20;4.67;;;3.10;;
63555;SDS011;49700;48.072;7.800;2023-04-03T05:28:47;3.50;;;3.20;;
63555;SDS011;49700;48.072;7.800;2023-04-03T05:31:12;2.73;;;2.53;;
63555;SDS011;49700;48.072;7.800;2023-04-03T05:33:38;4.80;;;3.27;;
63555;SDS011;49700;48.072;7.800;2023-04-03T05:36:07;3.50;;;3.03;;
63555;SDS011;49700;48.072;7.800;2023-04-03T05:38:36;6.20;;;3.30;;
63555;SDS011;49700;48.072;7.800;2023-04-03T05:41:01;3.40;;;3.00;;
63555;SDS011;49700;48.072;7.800;2023-04-03T05:43:27;3.60;;;2.70;;
63555;SDS011;49700;48.072;7.800;2023-04-03T05:45:53;5.55;;;3.08;;
63555;SDS011;49700;48.072;7.800;2023-04-03T05:48:20;4.07;;;3.33;;
63555;SDS011;49700;48.072;7.800;2023-04-03T05:50:46;3.10;;;2.90;;
63555;SDS011;49700;48.072;7.800;2023-04-03T05:53:22;3.90;;;3.17;;
63555;SDS011;49700;48.072;7.800;2023-04-03T05:55:53;4.25;;;3.75;;
63555;SDS011;49700;48.072;7.800;2023-04-03T05:58:19;2.97;;;2.78;;
63555;SDS011;49700;48.072;7.800;2023-04-03T06:00:46;6.47;;;3.35;;
63555;SDS011;49700;48.072;7.800;2023-04-03T06:03:12;6.00;;;3.70;;
63555;SDS011;49700;48.072;7.800;2023-04-03T06:05:37;3.80;;;3.30;;
63555;SDS011;49700;48.072;7.800;2023-04-03T06:08:03;6.00;;;3.40;;
63555;SDS011;49700;48.072;7.800;2023-04-03T06:10:29;4.38;;;3.00;;
63555;SDS011;49700;48.072;7.800;2023-04-03T06:12:55;4.70;;;4.20;;
63555;SDS011;49700;48.072;7.800;2023-04-03T06:15:22;3.05;;;2.75;;
63555;SDS011;49700;48.072;7.800;2023-04-03T06:17:48;3.60;;;3.30;;
63555;SDS011;49700;48.072;7.800;2023-04-03T06:20:13;4.80;;;3.15;;
63555;SDS011;49700;48.072;7.800;2023-04-03T06:22:39;4.80;;;3.77;;
63555;SDS011;49700;48.072;7.800;2023-04-03T06:25:05;4.00;;;3.60;;
63555;SDS011;49700;48.072;7.800;2023-04-03T06:27:31;6.93;;;3.40;;
63555;SDS011;49700;48.072;7.800;2023-04-03T06:29:56;2.97;;;2.73;;
63555;SDS011;49700;48.072;7.800;2023-04-03T06:32:22;3.63;;;3.33;;
63555;SDS011;49700;48.072;7.800;2023-04-03T06:34:48;2.80;;;2.58;;
63555;SDS011;49700;48.072;7.800;2023-04-03T06:37:16;2.93;;;2.40;;
63555;SDS011;49700;48.072;7.800;2023-04-03T06:39:43;5.35;;;2.85;;
63555;SDS011;49700;48.072;7.800;2023-04-03T06:42:10;3.40;;;2.92;;
63555;SDS011;49700;48.072;7.800;2023-04-03T06:44:44;3.83;;;2.80;;
63555;SDS011;49700;48.072;7.800;2023-04-03T06:47:11;5.97;;;2.57;;
63555;SDS011;49700;48.072;7.800;2023-04-03T06:49:44;3.17;;;2.85;;
63555;SDS011;49700;48.072;7.800;2023-04-03T06:52:56;2.85;;;2.25;;
63555;SDS011;49700;48.072;7.800;2023-04-03T06:55:21;3.95;;;2.55;;
63555;SDS011;49700;48.072;7.800;2023-04-03T06:57:47;2.97;;;2.67;;
63555;SDS011;49700;48.072;7.800;2023-04-03T07:00:13;2.87;;;2.37;;
63555;SDS011;49700;48.072;7.800;2023-04-03T07:02:38;3.85;;;2.45;;
63555;SDS011;49700;48.072;7.800;2023-04-03T07:05:04;4.00;;;3.70;;
63555;SDS011;49700;48.072;7.800;2023-04-03T07:07:30;3.20;;;2.83;;
63555;SDS011;49700;48.072;7.800;2023-04-03T07:09:55;3.47;;;2.67;;
63555;SDS011;49700;48.072;7.800;2023-04-03T07:12:21;2.60;;;2.40;;
63555;SDS011;49700;48.072;7.800;2023-04-03T07:14:46;5.57;;;2.33;;
63555;SDS011;49700;48.072;7.800;2023-04-03T07:17:12;3.03;;;2.77;;
63555;SDS011;49700;48.072;7.800;2023-04-03T07:19:37;2.60;;;2.20;;
63555;SDS011;49700;48.072;7.800;2023-04-03T07:22:02;2.30;;;1.93;;
63555;SDS011;49700;48.072;7.800;2023-04-03T07:24:28;2.33;;;2.00;;
63555;SDS011;49700;48.072;7.800;2023-04-03T07:26:53;5.27;;;2.77;;
63555;SDS011;49700;48.072;7.800;2023-04-03T07:29:19;3.43;;;2.07;;
63555;SDS011;49700;48.072;7.800;2023-04-03T07:31:46;2.92;;;2.50;;
63555;SDS011;49700;48.072;7.800;2023-04-03T07:34:12;2.65;;;2.42;;
63555;SDS011;49700;48.072;7.800;2023-04-03T07:36:38;2.93;;;2.63;;
63555;SDS011;49700;48.072;7.800;2023-04-03T07:39:03;2.53;;;2.33;;
63555;SDS011;49700;48.072;7.800;2023-04-03T07:41:28;4.57;;;2.87;;
63555;SDS011;49700;48.072;7.800;2023-04-03T07:43:55;2.47;;;1.80;;
63555;SDS011;49700;48.072;7.800;2023-04-03T07:46:21;3.08;;;2.70;;
63555;SDS011;49700;48.072;7.800;2023-04-03T07:48:47;2.57;;;2.37;;
63555;SDS011;49700;48.072;7.800;2023-04-03T07:51:12;2.30;;;1.80;;
63555;SDS011;49700;48.072;7.800;2023-04-03T07:53:38;2.27;;;1.97;;
63555;SDS011;49700;48.072;7.800;2023-04-03T07:56:04;2.17;;;2.00;;
63555;SDS011;49700;48.072;7.800;2023-04-03T07:58:29;2.70;;;2.27;;
63555;SDS011;49700;48.072;7.800;2023-04-03T08:00:55;2.17;;;1.97;;
63555;SDS011;49700;48.072;7.800;2023-04-03T08:03:21;2.27;;;2.17;;
63555;SDS011;49700;48.072;7.800;2023-04-03T08:05:48;2.58;;;2.38;;
63555;SDS011;49700;48.072;7.800;2023-04-03T08:08:15;3.08;;;2.20;;
63555;SDS011;49700;48.072;7.800;2023-04-03T08:10:43;3.13;;;2.53;;
63555;SDS011;49700;48.072;7.800;2023-04-03T08:13:09;3.10;;;1.70;;
63555;SDS011;49700;48.072;7.800;2023-04-03T08:15:34;1.60;;;1.50;;
63555;SDS011;49700;48.072;7.800;2023-04-03T08:18:01;2.50;;;2.10;;
63555;SDS011;49700;48.072;7.800;2023-04-03T08:20:27;3.90;;;2.50;;
63555;SDS011;49700;48.072;7.800;2023-04-03T08:22:53;2.50;;;2.30;;
63555;SDS011;49700;48.072;7.800;2023-04-03T08:25:19;3.10;;;2.47;;
63555;SDS011;49700;48.072;7.800;2023-04-03T08:27:44;2.40;;;2.20;;
63555;SDS011;49700;48.072;7.800;2023-04-03T08:30:10;2.33;;;1.87;;
63555;SDS011;49700;48.072;7.800;2023-04-03T08:32:36;3.25;;;2.70;;
63555;SDS011;49700;48.072;7.800;2023-04-03T08:35:02;2.77;;;2.37;;
63555;SDS011;49700;48.072;7.800;2023-04-03T08:37:28;2.70;;;2.40;;
63555;SDS011;49700;48.072;7.800;2023-04-03T08:39:54;2.07;;;1.80;;
63555;SDS011;49700;48.072;7.800;2023-04-03T08:48:08;2.40;;;2.20;;
63555;SDS011;49700;48.072;7.800;2023-04-03T08:50:41;3.20;;;2.40;;
63555;SDS011;49700;48.072;7.800;2023-04-03T08:53:20;3.75;;;2.75;;
63555;SDS011;49700;48.072;7.800;2023-04-03T08:55:53;2.78;;;2.50;;
63555;SDS011;49700;48.072;7.800;2023-04-03T09:00:51;3.20;;;2.90;;
63555;SDS011;49700;48.072;7.800;2023-04-03T09:03:21;3.65;;;2.97;;
63555;SDS011;49700;48.072;7.800;2023-04-03T09:05:55;3.95;;;2.75;;
63555;SDS011;49700;48.072;7.800;2023-04-03T09:08:27;3.25;;;2.28;;
63555;SDS011;49700;48.072;7.800;2023-04-03T09:11:44;3.33;;;2.90;;
63555;SDS011;49700;48.072;7.800;2023-04-03T09:14:03;3.63;;;3.30;;
63555;SDS011;49700;48.072;7.800;2023-04-03T09:18:58;2.80;;;2.57;;
63555;SDS011;49700;48.072;7.800;2023-04-03T09:21:34;4.25;;;2.42;;
63555;SDS011;49700;48.072;7.800;2023-04-03T09:24:02;3.42;;;2.67;;
63555;SDS011;49700;48.072;7.800;2023-04-03T09:27:14;2.80;;;2.50;;
63555;SDS011;49700;48.072;7.800;2023-04-03T09:29:27;3.92;;;2.70;;
63555;SDS011;49700;48.072;7.800;2023-04-03T09:31:57;2.55;;;2.25;;
63555;SDS011;49700;48.072;7.800;2023-04-03T09:34:26;2.42;;;2.22;;
63555;SDS011;49700;48.072;7.800;2023-04-03T09:36:56;2.65;;;2.15;;
63555;SDS011;49700;48.072;7.800;2023-04-03T09:39:32;3.22;;;2.95;;
63555;SDS011;49700;48.072;7.800;2023-04-03T09:42:16;2.95;;;2.72;;
63555;SDS011;49700;48.072;7.800;2023-04-03T09:44:53;3.03;;;2.83;;
63555;SDS011;49700;48.072;7.800;2023-04-03T09:47:28;2.55;;;2.17;;
63555;SDS011;49700;48.072;7.800;2023-04-03T09:52:39;2.58;;;2.38;;
63555;SDS011;49700;48.072;7.800;2023-04-03T09:55:19;2.30;;;1.75;;
63555;SDS011;49700;48.072;7.800;2023-04-03T09:57:57;2.47;;;2.28;;
63555;SDS011;49700;48.072;7.800;2023-04-03T10:00:28;4.07;;;2.20;;
63555;SDS011;49700;48.072;7.800;2023-04-03T10:02:58;1.80;;;1.70;;
63555;SDS011;49700;48.072;7.800;2023-04-03T10:05:35;2.33;;;2.15;;
63555;SDS011;49700;48.072;7.800;2023-04-03T10:10:45;2.10;;;1.90;;
63555;SDS011;49700;48.072;7.800;2023-04-03T10:13:17;2.30;;;2.08;;
63555;SDS011;49700;48.072;7.800;2023-04-03T10:15:56;1.70;;;1.60;;
63555;SDS011;49700;48.072;7.800;2023-04-03T10:18:32;1.85;;;1.75;;
63555;SDS011;49700;48.072;7.800;2023-04-03T10:26:50;1.85;;;1.75;;
63555;SDS011;49700;48.072;7.800;2023-04-03T10:34:47;1.90;;;1.55;;
63555;SDS011;49700;48.072;7.800;2023-04-03T10:37:23;2.55;;;2.10;;
63555;SDS011;49700;48.072;7.800;2023-04-03T10:47:54;1.80;;;1.70;;
63555;SDS011;49700;48.072;7.800;2023-04-03T10:50:31;1.95;;;1.85;;
63555;SDS011;49700;48.072;7.800;2023-04-03T10:56:19;2.05;;;1.90;;
63555;SDS011;49700;48.072;7.800;2023-04-03T10:59:01;2.45;;;2.10;;
63555;SDS011;49700;48.072;7.800;2023-04-03T11:01:31;2.47;;;1.50;;
63555;SDS011;49700;48.072;7.800;2023-04-03T11:04:00;1.95;;;1.67;;
63555;SDS011;49700;48.072;7.800;2023-04-03T11:06:34;1.95;;;1.80;;
63555;SDS011;49700;48.072;7.800;2023-04-03T11:11:51;3.80;;;2.08;;
63555;SDS011;49700;48.072;7.800;2023-04-03T11:17:33;2.30;;;2.10;;
63555;SDS011;49700;48.072;7.800;2023-04-03T11:22:32;2.15;;;1.90;;
63555;SDS011;49700;48.072;7.800;2023-04-03T11:25:04;2.88;;;2.30;;
63555;SDS011;49700;48.072;7.800;2023-04-03T11:27:43;1.88;;;1.70;;
63555;SDS011;49700;48.072;7.800;2023-04-03T11:30:15;2.10;;;1.75;;
63555;SDS011;49700;48.072;7.800;2023-04-03T11:35:14;3.13;;;1.90;;
63555;SDS011;49700;48.072;7.800;2023-04-03T11:37:49;1.60;;;1.50;;
63555;SDS011;49700;48.072;7.800;2023-04-03T11:40:31;2.05;;;1.70;;
63555;SDS011;49700;48.072;7.800;2023-04-03T11:47:54;2.13;;;1.50;;
63555;SDS011;49700;48.072;7.800;2023-04-03T12:13:34;2.55;;;2.35;;
63555;SDS011;49700;48.072;7.800;2023-04-03T12:16:03;1.63;;;1.50;;
63555;SDS011;49700;48.072;7.800;2023-04-03T12:18:40;1.88;;;1.75;;
63555;SDS011;49700;48.072;7.800;2023-04-03T12:21:16;1.83;;;1.73;;
63555;SDS011;49700;48.072;7.800;2023-04-03T12:26:38;2.53;;;2.33;;
63555;SDS011;49700;48.072;7.800;2023-04-03T12:29:20;2.45;;;2.15;;
63555;SDS011;49700;48.072;7.800;2023-04-03T12:34:55;2.97;;;2.10;;
63555;SDS011;49700;48.072;7.800;2023-04-03T12:48:37;1.50;;;1.40;;
63555;SDS011;49700;48.072;7.800;2023-04-03T12:51:04;3.88;;;2.42;;
63555;SDS011;49700;48.072;7.800;2023-04-03T12:53:36;2.10;;;1.75;;
63555;SDS011;49700;48.072;7.800;2023-04-03T12:58:56;2.50;;;2.30;;
63555;SDS011;49700;48.072;7.800;2023-04-03T13:01:38;3.22;;;2.65;;
63555;SDS011;49700;48.072;7.800;2023-04-03T13:04:04;4.68;;;2.20;;
63555;SDS011;49700;48.072;7.800;2023-04-03T13:06:31;3.60;;;2.30;;
63555;SDS011;49700;48.072;7.800;2023-04-03T13:09:02;2.95;;;2.30;;
63555;SDS011;49700;48.072;7.800;2023-04-03T13:11:33;2.08;;;1.50;;
63555;SDS011;49700;48.072;7.800;2023-04-03T13:14:05;2.58;;;2.08;;
63555;SDS011;49700;48.072;7.800;2023-04-03T13:16:40;2.05;;;1.63;;
63555;SDS011;49700;48.072;7.800;2023-04-03T13:19:15;2.58;;;1.50;;
63555;SDS011;49700;48.072;7.800;2023-04-03T13:21:42;2.22;;;1.90;;
63555;SDS011;49700;48.072;7.800;2023-04-03T13:24:09;4.30;;;2.30;;
63555;SDS011;49700;48.072;7.800;2023-04-03T13:26:35;2.70;;;2.33;;
63555;SDS011;49700;48.072;7.800;2023-04-03T13:29:06;2.90;;;2.03;;
63555;SDS011;49700;48.072;7.800;2023-04-03T13:31:44;2.05;;;1.95;;
63555;SDS011;49700;48.072;7.800;2023-04-03T13:34:11;2.30;;;2.10;;
63555;SDS011;49700;48.072;7.800;2023-04-03T13:36:39;2.30;;;2.10;;
63555;SDS011;49700;48.072;7.800;2023-04-03T13:41:40;1.80;;;1.70;;
63555;SDS011;49700;48.072;7.800;2023-04-03T13:46:52;2.90;;;2.10;;
63555;SDS011;49700;48.072;7.800;2023-04-03T13:51:57;2.67;;;2.05;;
63555;SDS011;49700;48.072;7.800;2023-04-03T13:54:36;2.65;;;2.00;;
63555;SDS011;49700;48.072;7.800;2023-04-03T13:57:13;3.95;;;2.10;;
63555;SDS011;49700;48.072;7.800;2023-04-03T13:59:40;4.38;;;2.20;;
63555;SDS011;49700;48.072;7.800;2023-04-03T14:02:14;2.00;;;1.90;;
63555;SDS011;49700;48.072;7.800;2023-04-03T14:04:50;3.00;;;1.88;;
63555;SDS011;49700;48.072;7.800;2023-04-03T14:07:21;3.25;;;2.42;;
63555;SDS011;49700;48.072;7.800;2023-04-03T14:09:47;5.53;;;2.10;;
63555;SDS011;49700;48.072;7.800;2023-04-03T14:15:00;2.10;;;1.90;;
63555;SDS011;49700;48.072;7.800;2023-04-03T14:17:26;2.30;;;2.10;;
63555;SDS011;49700;48.072;7.800;2023-04-03T14:19:53;2.13;;;2.00;;
63555;SDS011;49700;48.072;7.800;2023-04-03T14:22:21;4.20;;;2.35;;
63555;SDS011;49700;48.072;7.800;2023-04-03T14:24:48;2.33;;;2.13;;
63555;SDS011;49700;48.072;7.800;2023-04-03T14:27:48;1.93;;;1.83;;
63555;SDS011;49700;48.072;7.800;2023-04-03T14:30:16;2.17;;;1.90;;
63555;SDS011;49700;48.072;7.800;2023-04-03T14:32:48;1.90;;;1.80;;
63555;SDS011;49700;48.072;7.800;2023-04-03T14:35:15;2.83;;;2.10;;
63555;SDS011;49700;48.072;7.800;2023-04-03T14:37:41;2.63;;;2.20;;
63555;SDS011;49700;48.072;7.800;2023-04-03T14:40:08;2.77;;;1.87;;
63555;SDS011;49700;48.072;7.800;2023-04-03T14:42:37;1.65;;;1.48;;
63555;SDS011;49700;48.072;7.800;2023-04-03T14:45:04;2.58;;;2.13;;
63555;SDS011;49700;48.072;7.800;2023-04-03T14:47:32;2.85;;;1.90;;
63555;SDS011;49700;48.072;7.800;2023-04-03T14:50:02;2.75;;;2.38;;
63555;SDS011;49700;48.072;7.800;2023-04-03T14:52:31;6.10;;;2.53;;
63555;SDS011;49700;48.072;7.800;2023-04-03T14:54:58;2.70;;;2.03;;
63555;SDS011;49700;48.072;7.800;2023-04-03T14:57:26;2.47;;;2.28;;
63555;SDS011;49700;48.072;7.800;2023-04-03T14:59:53;3.03;;;2.10;;
63555;SDS011;49700;48.072;7.800;2023-04-03T15:04:47;1.77;;;1.67;;
63555;SDS011;49700;48.072;7.800;2023-04-03T15:07:13;2.27;;;2.10;;
63555;SDS011;49700;48.072;7.800;2023-04-03T15:09:38;2.43;;;2.13;;
63555;SDS011;49700;48.072;7.800;2023-04-03T15:12:04;3.03;;;2.60;;
63555;SDS011;49700;48.072;7.800;2023-04-03T15:14:29;3.10;;;2.17;;
63555;SDS011;49700;48.072;7.800;2023-04-03T15:16:55;2.17;;;1.80;;
63555;SDS011;49700;48.072;7.800;2023-04-03T15:19:20;3.10;;;2.50;;
63555;SDS011;49700;48.072;7.800;2023-04-03T15:21:46;2.27;;;1.90;;
63555;SDS011;49700;48.072;7.800;2023-04-03T15:24:11;3.40;;;2.70;;
63555;SDS011;49700;48.072;7.800;2023-04-03T15:26:37;2.50;;;1.60;;
63555;SDS011;49700;48.072;7.800;2023-04-03T15:29:03;2.20;;;2.00;;
63555;SDS011;49700;48.072;7.800;2023-04-03T15:31:30;2.67;;;2.47;;
63555;SDS011;49700;48.072;7.800;2023-04-03T15:33:56;3.95;;;2.30;;
63555;SDS011;49700;48.072;7.800;2023-04-03T15:36:22;2.33;;;1.67;;
63555;SDS011;49700;48.072;7.800;2023-04-03T15:38:47;2.60;;;2.07;;
63555;SDS011;49700;48.072;7.800;2023-04-03T15:41:15;2.40;;;2.20;;
63555;SDS011;49700;48.072;7.800;2023-04-03T15:43:41;2.00;;;1.83;;
63555;SDS011;49700;48.072;7.800;2023-04-03T15:46:06;2.73;;;2.53;;
63555;SDS011;49700;48.072;7.800;2023-04-03T15:48:32;3.37;;;2.13;;
63555;SDS011;49700;48.072;7.800;2023-04-03T15:50:58;4.40;;;3.20;;
63555;SDS011;49700;48.072;7.800;2023-04-03T15:53:25;4.22;;;2.60;;
63555;SDS011;49700;48.072;7.800;2023-04-03T15:55:50;3.23;;;2.93;;
63555;SDS011;49700;48.072;7.800;2023-04-03T15:58:16;2.63;;;2.30;;
63555;SDS011;49700;48.072;7.800;2023-04-03T16:00:41;3.73;;;2.80;;
63555;SDS011;49700;48.072;7.800;2023-04-03T16:03:17;3.30;;;2.65;;
63555;SDS011;49700;48.072;7.800;2023-04-03T16:05:44;2.55;;;2.35;;
63555;SDS011;49700;48.072;7.800;2023-04-03T16:08:10;3.63;;;2.80;;
63555;SDS011;49700;48.072;7.800;2023-04-03T16:10:37;3.42;;;2.65;;
63555;SDS011;49700;48.072;7.800;2023-04-03T16:13:02;2.80;;;2.33;;
63555;SDS011;49700;48.072;7.800;2023-04-03T16:15:29;2.35;;;2.15;;
63555;SDS011;49700;48.072;7.800;2023-04-03T16:17:55;2.85;;;1.92;;
63555;SDS011;49700;48.072;7.800;2023-04-03T16:20:23;3.17;;;2.47;;
63555;SDS011;49700;48.072;7.800;2023-04-03T16:22:49;2.47;;;1.90;;
63555;SDS011;49700;48.072;7.800;2023-04-03T16:25:15;2.40;;;2.20;;
63555;SDS011;49700;48.072;7.800;2023-04-03T16:27:42;4.70;;;2.85;;
63555;SDS011;49700;48.072;7.800;2023-04-03T16:30:07;2.00;;;1.80;;
63555;SDS011;49700;48.072;7.800;2023-04-03T16:32:34;2.97;;;1.88;;
63555;SDS011;49700;48.072;7.800;2023-04-03T16:34:59;3.13;;;2.38;;
63555;SDS011;49700;48.072;7.800;2023-04-03T16:37:25;4.93;;;2.80;;
63555;SDS011;49700;48.072;7.800;2023-04-03T16:39:51;2.60;;;2.33;;
63555;SDS011;49700;48.072;7.800;2023-04-03T16:42:17;5.38;;;2.95;;
63555;SDS011;49700;48.072;7.800;2023-04-03T16:44:42;1.97;;;1.70;;
63555;SDS011;49700;48.072;7.800;2023-04-03T16:47:08;2.70;;;1.60;;
63555;SDS011;49700;48.072;7.800;2023-04-03T16:49:34;2.17;;;2.07;;
63555;SDS011;49700;48.072;7.800;2023-04-03T16:52:00;2.08;;;1.80;;
63555;SDS011;49700;48.072;7.800;2023-04-03T16:54:28;2.50;;;2.30;;
63555;SDS011;49700;48.072;7.800;2023-04-03T16:56:54;2.03;;;1.80;;
63555;SDS011;49700;48.072;7.800;2023-04-03T16:59:19;2.50;;;2.40;;